Tyrone, Pennsylvania
Current Conditions -  °F | °C
As of 3:15 AM on Saturday 29 Nov 2014 (Local Time) from KUNV Reporting Station
Light Snow Light Snow  
Wind Chill: 22°   Ceiling: 1400
Heat Index: 22°   Visibility: 2mi
Dew Point: 19°   Wind: 0mph
Humidity: 87%   Direction: NA
Pressure: 30.23"   Gusts: NA
Location:  40.68°N, 78.24°W
Report Text: KUNV 290815Z AUTO 00000KT 2SM -SN OVC014 M06/M07 A3023 RMK AO2 T10571075
Loading
Personal Weather Stations






























Interactive Weather Map New forecast layout! Learn more

10-Day Weather Forecast

Advertisements
Track Severe Weather on mobile